sensor_id;sensor_type;location;lat;lon;timestamp;P1;durP1;ratioP1;P2;durP2;ratioP2
4268;SDS011;2148;48.554;7.834;2023-05-14T00:01:03;4.87;;;4.43;;
4268;SDS011;2148;48.554;7.834;2023-05-14T00:03:28;5.00;;;4.50;;
4268;SDS011;2148;48.554;7.834;2023-05-14T00:05:56;5.23;;;4.73;;
4268;SDS011;2148;48.554;7.834;2023-05-14T00:08:22;5.23;;;4.80;;
4268;SDS011;2148;48.554;7.834;2023-05-14T00:10:47;6.43;;;4.87;;
4268;SDS011;2148;48.554;7.834;2023-05-14T00:13:13;5.80;;;5.20;;
4268;SDS011;2148;48.554;7.834;2023-05-14T00:15:38;6.73;;;4.80;;
4268;SDS011;2148;48.554;7.834;2023-05-14T00:18:04;5.53;;;5.03;;
4268;SDS011;2148;48.554;7.834;2023-05-14T00:20:30;5.30;;;4.80;;
4268;SDS011;2148;48.554;7.834;2023-05-14T00:22:56;5.80;;;5.20;;
4268;SDS011;2148;48.554;7.834;2023-05-14T00:25:21;5.60;;;5.10;;
4268;SDS011;2148;48.554;7.834;2023-05-14T00:27:48;5.50;;;5.00;;
4268;SDS011;2148;48.554;7.834;2023-05-14T00:30:13;6.33;;;5.43;;
4268;SDS011;2148;48.554;7.834;2023-05-14T00:32:38;5.30;;;4.80;;
4268;SDS011;2148;48.554;7.834;2023-05-14T00:35:04;5.30;;;4.80;;
4268;SDS011;2148;48.554;7.834;2023-05-14T00:37:30;6.10;;;5.00;;
4268;SDS011;2148;48.554;7.834;2023-05-14T00:39:55;5.70;;;5.20;;
4268;SDS011;2148;48.554;7.834;2023-05-14T00:42:20;6.37;;;5.67;;
4268;SDS011;2148;48.554;7.834;2023-05-14T00:44:46;6.87;;;6.00;;
4268;SDS011;2148;48.554;7.834;2023-05-14T00:47:11;5.87;;;5.37;;
4268;SDS011;2148;48.554;7.834;2023-05-14T00:49:37;5.23;;;4.83;;
4268;SDS011;2148;48.554;7.834;2023-05-14T00:52:04;5.60;;;5.10;;
4268;SDS011;2148;48.554;7.834;2023-05-14T00:54:30;5.77;;;5.23;;
4268;SDS011;2148;48.554;7.834;2023-05-14T00:56:57;5.80;;;5.30;;
4268;SDS011;2148;48.554;7.834;2023-05-14T00:59:23;6.27;;;5.27;;
4268;SDS011;2148;48.554;7.834;2023-05-14T01:01:50;6.63;;;5.17;;
4268;SDS011;2148;48.554;7.834;2023-05-14T01:04:15;6.07;;;5.57;;
4268;SDS011;2148;48.554;7.834;2023-05-14T01:12:38;6.20;;;5.60;;
4268;SDS011;2148;48.554;7.834;2023-05-14T01:18:08;5.40;;;4.90;;
4268;SDS011;2148;48.554;7.834;2023-05-14T01:20:34;5.07;;;4.60;;
4268;SDS011;2148;48.554;7.834;2023-05-14T01:23:00;5.63;;;4.97;;
4268;SDS011;2148;48.554;7.834;2023-05-14T01:25:26;5.30;;;4.83;;
4268;SDS011;2148;48.554;7.834;2023-05-14T01:33:31;5.60;;;5.00;;
4268;SDS011;2148;48.554;7.834;2023-05-14T01:35:58;5.57;;;5.10;;
4268;SDS011;2148;48.554;7.834;2023-05-14T01:38:23;5.13;;;4.73;;
4268;SDS011;2148;48.554;7.834;2023-05-14T01:40:50;5.90;;;5.17;;
4268;SDS011;2148;48.554;7.834;2023-05-14T01:43:16;6.00;;;5.40;;
4268;SDS011;2148;48.554;7.834;2023-05-14T01:45:42;5.90;;;5.40;;
4268;SDS011;2148;48.554;7.834;2023-05-14T01:48:07;6.07;;;5.47;;
4268;SDS011;2148;48.554;7.834;2023-05-14T01:50:36;6.03;;;5.53;;
4268;SDS011;2148;48.554;7.834;2023-05-14T01:53:05;5.53;;;5.13;;
4268;SDS011;2148;48.554;7.834;2023-05-14T01:55:30;6.10;;;5.60;;
4268;SDS011;2148;48.554;7.834;2023-05-14T01:57:55;6.20;;;5.60;;
4268;SDS011;2148;48.554;7.834;2023-05-14T02:00:22;5.57;;;5.07;;
4268;SDS011;2148;48.554;7.834;2023-05-14T02:02:49;5.73;;;5.23;;
4268;SDS011;2148;48.554;7.834;2023-05-14T02:05:14;9.60;;;5.40;;
4268;SDS011;2148;48.554;7.834;2023-05-14T02:07:43;5.73;;;5.33;;
4268;SDS011;2148;48.554;7.834;2023-05-14T02:10:08;6.60;;;5.63;;
4268;SDS011;2148;48.554;7.834;2023-05-14T02:12:34;6.17;;;5.67;;
4268;SDS011;2148;48.554;7.834;2023-05-14T02:15:03;6.43;;;5.83;;
4268;SDS011;2148;48.554;7.834;2023-05-14T02:17:32;6.47;;;5.97;;
4268;SDS011;2148;48.554;7.834;2023-05-14T02:19:58;6.67;;;5.50;;
4268;SDS011;2148;48.554;7.834;2023-05-14T02:22:23;6.30;;;5.73;;
4268;SDS011;2148;48.554;7.834;2023-05-14T02:24:49;6.17;;;5.60;;
4268;SDS011;2148;48.554;7.834;2023-05-14T02:27:15;6.73;;;6.07;;
4268;SDS011;2148;48.554;7.834;2023-05-14T02:29:40;9.00;;;5.90;;
4268;SDS011;2148;48.554;7.834;2023-05-14T02:32:06;6.13;;;5.63;;
4268;SDS011;2148;48.554;7.834;2023-05-14T02:34:31;6.37;;;5.60;;
4268;SDS011;2148;48.554;7.834;2023-05-14T02:37:01;7.27;;;6.60;;
4268;SDS011;2148;48.554;7.834;2023-05-14T02:39:26;6.87;;;6.27;;
4268;SDS011;2148;48.554;7.834;2023-05-14T02:41:52;6.77;;;6.17;;
4268;SDS011;2148;48.554;7.834;2023-05-14T02:44:17;6.77;;;6.27;;
4268;SDS011;2148;48.554;7.834;2023-05-14T02:46:43;7.10;;;6.40;;
4268;SDS011;2148;48.554;7.834;2023-05-14T02:49:08;7.13;;;6.43;;
4268;SDS011;2148;48.554;7.834;2023-05-14T02:51:33;7.03;;;6.40;;
4268;SDS011;2148;48.554;7.834;2023-05-14T02:53:59;6.83;;;6.20;;
4268;SDS011;2148;48.554;7.834;2023-05-14T02:56:24;7.27;;;6.53;;
4268;SDS011;2148;48.554;7.834;2023-05-14T02:58:53;6.90;;;6.27;;
4268;SDS011;2148;48.554;7.834;2023-05-14T03:01:18;6.97;;;6.33;;
4268;SDS011;2148;48.554;7.834;2023-05-14T03:03:44;6.43;;;5.93;;
4268;SDS011;2148;48.554;7.834;2023-05-14T03:06:09;9.03;;;6.50;;
4268;SDS011;2148;48.554;7.834;2023-05-14T03:08:35;6.90;;;6.30;;
4268;SDS011;2148;48.554;7.834;2023-05-14T03:11:01;8.07;;;6.77;;
4268;SDS011;2148;48.554;7.834;2023-05-14T03:13:26;7.50;;;6.90;;
4268;SDS011;2148;48.554;7.834;2023-05-14T03:15:51;8.10;;;7.03;;
4268;SDS011;2148;48.554;7.834;2023-05-14T03:18:20;7.70;;;7.00;;
4268;SDS011;2148;48.554;7.834;2023-05-14T03:20:46;7.10;;;6.53;;
4268;SDS011;2148;48.554;7.834;2023-05-14T03:23:11;7.87;;;7.07;;
4268;SDS011;2148;48.554;7.834;2023-05-14T03:25:36;7.33;;;6.47;;
4268;SDS011;2148;48.554;7.834;2023-05-14T03:28:02;8.57;;;6.83;;
4268;SDS011;2148;48.554;7.834;2023-05-14T03:30:27;6.93;;;6.37;;
4268;SDS011;2148;48.554;7.834;2023-05-14T03:32:53;7.20;;;6.60;;
4268;SDS011;2148;48.554;7.834;2023-05-14T03:35:18;7.20;;;6.53;;
4268;SDS011;2148;48.554;7.834;2023-05-14T03:37:43;8.00;;;7.30;;
4268;SDS011;2148;48.554;7.834;2023-05-14T03:40:09;7.63;;;7.03;;
4268;SDS011;2148;48.554;7.834;2023-05-14T03:42:34;7.80;;;7.03;;
4268;SDS011;2148;48.554;7.834;2023-05-14T03:45:00;7.87;;;7.13;;
4268;SDS011;2148;48.554;7.834;2023-05-14T03:47:25;8.53;;;7.63;;
4268;SDS011;2148;48.554;7.834;2023-05-14T03:49:50;8.33;;;7.53;;
4268;SDS011;2148;48.554;7.834;2023-05-14T03:52:15;7.83;;;7.23;;
4268;SDS011;2148;48.554;7.834;2023-05-14T03:54:40;8.37;;;7.67;;
4268;SDS011;2148;48.554;7.834;2023-05-14T03:57:06;8.97;;;8.17;;
4268;SDS011;2148;48.554;7.834;2023-05-14T03:59:31;8.33;;;7.53;;
4268;SDS011;2148;48.554;7.834;2023-05-14T04:01:56;8.33;;;7.53;;
4268;SDS011;2148;48.554;7.834;2023-05-14T04:04:21;9.63;;;7.33;;
4268;SDS011;2148;48.554;7.834;2023-05-14T04:06:47;8.63;;;7.90;;
4268;SDS011;2148;48.554;7.834;2023-05-14T04:09:12;8.27;;;7.57;;
4268;SDS011;2148;48.554;7.834;2023-05-14T04:11:37;9.13;;;8.23;;
4268;SDS011;2148;48.554;7.834;2023-05-14T04:14:02;8.67;;;7.83;;
4268;SDS011;2148;48.554;7.834;2023-05-14T04:16:28;8.57;;;7.80;;
4268;SDS011;2148;48.554;7.834;2023-05-14T04:18:53;8.13;;;7.43;;
4268;SDS011;2148;48.554;7.834;2023-05-14T04:21:18;8.33;;;7.53;;
4268;SDS011;2148;48.554;7.834;2023-05-14T04:23:43;9.17;;;8.23;;
4268;SDS011;2148;48.554;7.834;2023-05-14T04:26:09;9.17;;;8.40;;
4268;SDS011;2148;48.554;7.834;2023-05-14T04:28:34;8.60;;;7.90;;
4268;SDS011;2148;48.554;7.834;2023-05-14T04:30:59;9.40;;;8.60;;
4268;SDS011;2148;48.554;7.834;2023-05-14T04:33:25;8.47;;;7.77;;
4268;SDS011;2148;48.554;7.834;2023-05-14T04:35:51;9.43;;;8.50;;
4268;SDS011;2148;48.554;7.834;2023-05-14T04:38:16;9.23;;;8.40;;
4268;SDS011;2148;48.554;7.834;2023-05-14T04:40:42;8.87;;;8.07;;
4268;SDS011;2148;48.554;7.834;2023-05-14T04:43:07;8.07;;;7.37;;
4268;SDS011;2148;48.554;7.834;2023-05-14T04:45:32;8.40;;;7.60;;
4268;SDS011;2148;48.554;7.834;2023-05-14T04:47:58;8.90;;;8.07;;
4268;SDS011;2148;48.554;7.834;2023-05-14T04:50:23;9.07;;;8.20;;
4268;SDS011;2148;48.554;7.834;2023-05-14T04:52:48;8.67;;;7.87;;
4268;SDS011;2148;48.554;7.834;2023-05-14T04:55:14;8.87;;;7.97;;
4268;SDS011;2148;48.554;7.834;2023-05-14T04:57:39;8.17;;;7.37;;
4268;SDS011;2148;48.554;7.834;2023-05-14T05:00:05;8.67;;;7.83;;
4268;SDS011;2148;48.554;7.834;2023-05-14T05:02:31;8.20;;;7.40;;
4268;SDS011;2148;48.554;7.834;2023-05-14T05:04:58;8.23;;;7.53;;
4268;SDS011;2148;48.554;7.834;2023-05-14T05:07:23;8.13;;;7.33;;
4268;SDS011;2148;48.554;7.834;2023-05-14T05:09:49;8.47;;;7.77;;
4268;SDS011;2148;48.554;7.834;2023-05-14T05:12:14;9.73;;;7.70;;
4268;SDS011;2148;48.554;7.834;2023-05-14T05:14:39;8.17;;;7.47;;
4268;SDS011;2148;48.554;7.834;2023-05-14T05:17:04;7.87;;;7.17;;
4268;SDS011;2148;48.554;7.834;2023-05-14T05:19:30;8.57;;;7.77;;
4268;SDS011;2148;48.554;7.834;2023-05-14T05:21:55;8.40;;;7.60;;
4268;SDS011;2148;48.554;7.834;2023-05-14T05:24:20;8.17;;;7.47;;
4268;SDS011;2148;48.554;7.834;2023-05-14T05:26:45;8.27;;;7.57;;
4268;SDS011;2148;48.554;7.834;2023-05-14T05:29:11;7.83;;;7.13;;
4268;SDS011;2148;48.554;7.834;2023-05-14T05:31:36;7.40;;;6.80;;
4268;SDS011;2148;48.554;7.834;2023-05-14T05:34:01;7.77;;;7.07;;
4268;SDS011;2148;48.554;7.834;2023-05-14T05:36:26;7.90;;;7.10;;
4268;SDS011;2148;48.554;7.834;2023-05-14T05:38:52;8.67;;;7.10;;
4268;SDS011;2148;48.554;7.834;2023-05-14T05:41:17;7.97;;;7.17;;
4268;SDS011;2148;48.554;7.834;2023-05-14T05:43:43;8.70;;;7.83;;
4268;SDS011;2148;48.554;7.834;2023-05-14T05:46:08;7.60;;;6.90;;
4268;SDS011;2148;48.554;7.834;2023-05-14T05:48:33;8.20;;;7.40;;
4268;SDS011;2148;48.554;7.834;2023-05-14T05:50:58;7.80;;;7.10;;
4268;SDS011;2148;48.554;7.834;2023-05-14T05:53:24;7.73;;;7.03;;
4268;SDS011;2148;48.554;7.834;2023-05-14T05:55:49;7.90;;;7.13;;
4268;SDS011;2148;48.554;7.834;2023-05-14T05:58:17;7.97;;;7.27;;
4268;SDS011;2148;48.554;7.834;2023-05-14T06:00:43;7.47;;;6.87;;
4268;SDS011;2148;48.554;7.834;2023-05-14T06:03:09;7.67;;;7.00;;
4268;SDS011;2148;48.554;7.834;2023-05-14T06:05:35;6.90;;;6.30;;
4268;SDS011;2148;48.554;7.834;2023-05-14T06:08:00;7.33;;;6.63;;
4268;SDS011;2148;48.554;7.834;2023-05-14T06:10:26;8.13;;;6.77;;
4268;SDS011;2148;48.554;7.834;2023-05-14T06:12:51;7.03;;;6.37;;
4268;SDS011;2148;48.554;7.834;2023-05-14T06:15:16;7.70;;;7.10;;
4268;SDS011;2148;48.554;7.834;2023-05-14T06:17:42;6.93;;;6.23;;
4268;SDS011;2148;48.554;7.834;2023-05-14T06:20:07;7.10;;;6.43;;
4268;SDS011;2148;48.554;7.834;2023-05-14T06:22:33;6.83;;;6.27;;
4268;SDS011;2148;48.554;7.834;2023-05-14T06:24:59;7.23;;;6.63;;
4268;SDS011;2148;48.554;7.834;2023-05-14T06:27:24;6.40;;;5.90;;
4268;SDS011;2148;48.554;7.834;2023-05-14T06:29:49;7.50;;;6.90;;
4268;SDS011;2148;48.554;7.834;2023-05-14T06:32:15;6.70;;;6.10;;
4268;SDS011;2148;48.554;7.834;2023-05-14T06:34:40;7.50;;;6.87;;
4268;SDS011;2148;48.554;7.834;2023-05-14T06:37:06;7.50;;;6.70;;
4268;SDS011;2148;48.554;7.834;2023-05-14T06:39:33;7.30;;;6.60;;
4268;SDS011;2148;48.554;7.834;2023-05-14T06:41:59;6.70;;;6.10;;
4268;SDS011;2148;48.554;7.834;2023-05-14T06:44:24;7.13;;;6.47;;
4268;SDS011;2148;48.554;7.834;2023-05-14T06:46:49;8.50;;;6.90;;
4268;SDS011;2148;48.554;7.834;2023-05-14T06:49:15;7.83;;;6.80;;
4268;SDS011;2148;48.554;7.834;2023-05-14T06:51:40;6.83;;;6.20;;
4268;SDS011;2148;48.554;7.834;2023-05-14T06:54:05;6.40;;;5.80;;
4268;SDS011;2148;48.554;7.834;2023-05-14T06:56:31;7.10;;;6.50;;
4268;SDS011;2148;48.554;7.834;2023-05-14T06:58:56;6.87;;;6.17;;
4268;SDS011;2148;48.554;7.834;2023-05-14T07:01:21;7.10;;;6.53;;
4268;SDS011;2148;48.554;7.834;2023-05-14T07:03:47;6.90;;;6.30;;
4268;SDS011;2148;48.554;7.834;2023-05-14T07:06:12;6.97;;;6.37;;
4268;SDS011;2148;48.554;7.834;2023-05-14T07:08:38;7.10;;;6.40;;
4268;SDS011;2148;48.554;7.834;2023-05-14T07:11:04;7.20;;;6.60;;
4268;SDS011;2148;48.554;7.834;2023-05-14T07:13:29;7.20;;;6.60;;
4268;SDS011;2148;48.554;7.834;2023-05-14T07:15:54;7.97;;;7.27;;
4268;SDS011;2148;48.554;7.834;2023-05-14T07:18:20;7.67;;;6.97;;
4268;SDS011;2148;48.554;7.834;2023-05-14T07:20:46;7.60;;;7.00;;
4268;SDS011;2148;48.554;7.834;2023-05-14T07:23:11;6.63;;;6.03;;
4268;SDS011;2148;48.554;7.834;2023-05-14T07:25:36;7.17;;;6.50;;
4268;SDS011;2148;48.554;7.834;2023-05-14T07:28:02;6.67;;;5.80;;
4268;SDS011;2148;48.554;7.834;2023-05-14T07:30:27;6.90;;;6.30;;
4268;SDS011;2148;48.554;7.834;2023-05-14T07:32:52;6.90;;;6.30;;
4268;SDS011;2148;48.554;7.834;2023-05-14T07:35:18;7.17;;;6.30;;
4268;SDS011;2148;48.554;7.834;2023-05-14T07:37:43;7.17;;;6.47;;
4268;SDS011;2148;48.554;7.834;2023-05-14T07:40:08;8.17;;;7.47;;
4268;SDS011;2148;48.554;7.834;2023-05-14T07:42:34;7.77;;;7.07;;
4268;SDS011;2148;48.554;7.834;2023-05-14T07:44:59;8.20;;;7.50;;
4268;SDS011;2148;48.554;7.834;2023-05-14T07:47:25;8.27;;;7.53;;
4268;SDS011;2148;48.554;7.834;2023-05-14T07:49:54;9.63;;;7.63;;
4268;SDS011;2148;48.554;7.834;2023-05-14T07:52:20;8.70;;;7.90;;
4268;SDS011;2148;48.554;7.834;2023-05-14T07:54:45;8.37;;;7.57;;
4268;SDS011;2148;48.554;7.834;2023-05-14T07:57:10;8.40;;;7.70;;
4268;SDS011;2148;48.554;7.834;2023-05-14T07:59:36;8.20;;;7.40;;
4268;SDS011;2148;48.554;7.834;2023-05-14T08:02:01;8.47;;;7.57;;
4268;SDS011;2148;48.554;7.834;2023-05-14T08:04:26;9.07;;;7.97;;
4268;SDS011;2148;48.554;7.834;2023-05-14T08:06:52;8.13;;;7.43;;
4268;SDS011;2148;48.554;7.834;2023-05-14T08:09:17;7.57;;;6.80;;
4268;SDS011;2148;48.554;7.834;2023-05-14T08:11:42;8.43;;;7.73;;
4268;SDS011;2148;48.554;7.834;2023-05-14T08:14:07;8.57;;;7.83;;
4268;SDS011;2148;48.554;7.834;2023-05-14T08:16:33;8.17;;;7.37;;
4268;SDS011;2148;48.554;7.834;2023-05-14T08:18:58;8.10;;;7.30;;
4268;SDS011;2148;48.554;7.834;2023-05-14T08:21:23;7.77;;;7.03;;
4268;SDS011;2148;48.554;7.834;2023-05-14T08:23:48;7.37;;;6.70;;
4268;SDS011;2148;48.554;7.834;2023-05-14T08:26:14;7.30;;;6.60;;
4268;SDS011;2148;48.554;7.834;2023-05-14T08:28:39;7.60;;;6.90;;
4268;SDS011;2148;48.554;7.834;2023-05-14T08:31:04;7.40;;;6.77;;
4268;SDS011;2148;48.554;7.834;2023-05-14T08:33:29;7.43;;;6.70;;
4268;SDS011;2148;48.554;7.834;2023-05-14T08:35:55;7.03;;;6.33;;
4268;SDS011;2148;48.554;7.834;2023-05-14T08:38:22;6.40;;;5.70;;
4268;SDS011;2148;48.554;7.834;2023-05-14T08:40:47;7.40;;;6.70;;
4268;SDS011;2148;48.554;7.834;2023-05-14T08:43:14;6.80;;;6.20;;
4268;SDS011;2148;48.554;7.834;2023-05-14T08:45:42;6.47;;;5.87;;
4268;SDS011;2148;48.554;7.834;2023-05-14T08:48:08;6.70;;;6.10;;
4268;SDS011;2148;48.554;7.834;2023-05-14T08:50:35;6.77;;;6.07;;
4268;SDS011;2148;48.554;7.834;2023-05-14T08:53:00;6.73;;;6.03;;
4268;SDS011;2148;48.554;7.834;2023-05-14T08:55:26;5.60;;;5.10;;
4268;SDS011;2148;48.554;7.834;2023-05-14T08:57:52;5.63;;;5.13;;
4268;SDS011;2148;48.554;7.834;2023-05-14T09:00:17;6.10;;;5.60;;
4268;SDS011;2148;48.554;7.834;2023-05-14T09:02:43;5.60;;;5.20;;
4268;SDS011;2148;48.554;7.834;2023-05-14T09:05:08;6.83;;;5.83;;
4268;SDS011;2148;48.554;7.834;2023-05-14T09:07:34;5.70;;;5.20;;
4268;SDS011;2148;48.554;7.834;2023-05-14T09:10:00;6.50;;;5.90;;
4268;SDS011;2148;48.554;7.834;2023-05-14T09:12:26;5.03;;;4.63;;
4268;SDS011;2148;48.554;7.834;2023-05-14T09:14:51;5.90;;;4.87;;
4268;SDS011;2148;48.554;7.834;2023-05-14T09:17:17;5.03;;;4.53;;
4268;SDS011;2148;48.554;7.834;2023-05-14T09:19:42;5.40;;;5.00;;
4268;SDS011;2148;48.554;7.834;2023-05-14T09:22:09;4.80;;;4.40;;
4268;SDS011;2148;48.554;7.834;2023-05-14T09:24:36;5.40;;;4.90;;
4268;SDS011;2148;48.554;7.834;2023-05-14T09:27:02;4.83;;;4.43;;
4268;SDS011;2148;48.554;7.834;2023-05-14T09:29:28;4.93;;;4.53;;
4268;SDS011;2148;48.554;7.834;2023-05-14T09:31:54;5.07;;;4.57;;
4268;SDS011;2148;48.554;7.834;2023-05-14T09:34:24;5.33;;;4.83;;
4268;SDS011;2148;48.554;7.834;2023-05-14T09:36:54;4.43;;;4.13;;
4268;SDS011;2148;48.554;7.834;2023-05-14T09:39:24;4.47;;;3.57;;
4268;SDS011;2148;48.554;7.834;2023-05-14T09:41:50;4.73;;;3.97;;
4268;SDS011;2148;48.554;7.834;2023-05-14T09:44:16;4.17;;;3.70;;
4268;SDS011;2148;48.554;7.834;2023-05-14T09:46:42;4.30;;;3.90;;
4268;SDS011;2148;48.554;7.834;2023-05-14T09:49:07;4.20;;;3.80;;
4268;SDS011;2148;48.554;7.834;2023-05-14T09:51:32;4.30;;;3.90;;
4268;SDS011;2148;48.554;7.834;2023-05-14T09:53:57;4.10;;;3.70;;
4268;SDS011;2148;48.554;7.834;2023-05-14T09:56:22;3.40;;;3.13;;
4268;SDS011;2148;48.554;7.834;2023-05-14T09:58:48;3.70;;;3.40;;
4268;SDS011;2148;48.554;7.834;2023-05-14T10:01:13;4.43;;;4.03;;
4268;SDS011;2148;48.554;7.834;2023-05-14T10:03:42;3.93;;;3.63;;
4268;SDS011;2148;48.554;7.834;2023-05-14T10:06:08;3.80;;;3.50;;
4268;SDS011;2148;48.554;7.834;2023-05-14T10:08:34;3.83;;;3.53;;
4268;SDS011;2148;48.554;7.834;2023-05-14T10:11:05;3.70;;;3.40;;
4268;SDS011;2148;48.554;7.834;2023-05-14T10:13:38;3.57;;;3.27;;
4268;SDS011;2148;48.554;7.834;2023-05-14T10:16:10;3.30;;;3.00;;
4268;SDS011;2148;48.554;7.834;2023-05-14T10:18:42;3.73;;;3.43;;
4268;SDS011;2148;48.554;7.834;2023-05-14T10:21:10;3.17;;;2.90;;
4268;SDS011;2148;48.554;7.834;2023-05-14T10:23:37;3.50;;;3.23;;
4268;SDS011;2148;48.554;7.834;2023-05-14T10:26:03;3.17;;;2.97;;
4268;SDS011;2148;48.554;7.834;2023-05-14T10:28:28;3.50;;;3.13;;
4268;SDS011;2148;48.554;7.834;2023-05-14T10:30:54;3.03;;;2.80;;
4268;SDS011;2148;48.554;7.834;2023-05-14T10:33:20;3.47;;;3.00;;
4268;SDS011;2148;48.554;7.834;2023-05-14T10:35:55;3.10;;;2.90;;
4268;SDS011;2148;48.554;7.834;2023-05-14T10:38:21;3.20;;;2.90;;
4268;SDS011;2148;48.554;7.834;2023-05-14T10:40:50;2.73;;;2.53;;
4268;SDS011;2148;48.554;7.834;2023-05-14T10:43:19;2.90;;;2.70;;
4268;SDS011;2148;48.554;7.834;2023-05-14T10:45:44;2.53;;;2.33;;
4268;SDS011;2148;48.554;7.834;2023-05-14T10:48:10;3.00;;;2.80;;
4268;SDS011;2148;48.554;7.834;2023-05-14T10:50:35;2.57;;;2.37;;
4268;SDS011;2148;48.554;7.834;2023-05-14T10:53:01;2.90;;;2.70;;
4268;SDS011;2148;48.554;7.834;2023-05-14T10:55:26;3.07;;;2.87;;
4268;SDS011;2148;48.554;7.834;2023-05-14T10:57:51;2.63;;;2.43;;
4268;SDS011;2148;48.554;7.834;2023-05-14T11:00:17;3.50;;;3.20;;
4268;SDS011;2148;48.554;7.834;2023-05-14T11:02:42;3.30;;;3.10;;
4268;SDS011;2148;48.554;7.834;2023-05-14T11:05:15;3.10;;;2.80;;
4268;SDS011;2148;48.554;7.834;2023-05-14T11:07:45;3.40;;;3.10;;
4268;SDS011;2148;48.554;7.834;2023-05-14T11:10:15;2.97;;;2.77;;
4268;SDS011;2148;48.554;7.834;2023-05-14T11:12:43;6.30;;;3.87;;
4268;SDS011;2148;48.554;7.834;2023-05-14T11:15:10;3.50;;;3.20;;
4268;SDS011;2148;48.554;7.834;2023-05-14T11:17:36;3.67;;;3.37;;
4268;SDS011;2148;48.554;7.834;2023-05-14T11:20:03;3.70;;;3.40;;
4268;SDS011;2148;48.554;7.834;2023-05-14T11:22:32;3.83;;;3.50;;
4268;SDS011;2148;48.554;7.834;2023-05-14T11:24:58;3.40;;;3.20;;
4268;SDS011;2148;48.554;7.834;2023-05-14T11:27:24;3.70;;;3.40;;
4268;SDS011;2148;48.554;7.834;2023-05-14T11:29:50;3.33;;;3.10;;
4268;SDS011;2148;48.554;7.834;2023-05-14T11:32:16;3.80;;;3.50;;
4268;SDS011;2148;48.554;7.834;2023-05-14T11:34:42;5.20;;;3.90;;
4268;SDS011;2148;48.554;7.834;2023-05-14T11:37:11;3.70;;;3.40;;
4268;SDS011;2148;48.554;7.834;2023-05-14T11:39:38;3.30;;;3.10;;
4268;SDS011;2148;48.554;7.834;2023-05-14T11:42:06;4.07;;;3.10;;
4268;SDS011;2148;48.554;7.834;2023-05-14T11:44:35;3.17;;;2.97;;
4268;SDS011;2148;48.554;7.834;2023-05-14T11:47:02;3.37;;;3.07;;
4268;SDS011;2148;48.554;7.834;2023-05-14T11:49:29;3.67;;;3.37;;
4268;SDS011;2148;48.554;7.834;2023-05-14T11:51:58;3.40;;;3.10;;
4268;SDS011;2148;48.554;7.834;2023-05-14T11:54:26;3.93;;;3.60;;
4268;SDS011;2148;48.554;7.834;2023-05-14T11:56:53;3.30;;;3.10;;
4268;SDS011;2148;48.554;7.834;2023-05-14T11:59:19;4.10;;;3.77;;
4268;SDS011;2148;48.554;7.834;2023-05-14T12:01:45;3.37;;;3.07;;
4268;SDS011;2148;48.554;7.834;2023-05-14T12:04:11;3.73;;;3.17;;
4268;SDS011;2148;48.554;7.834;2023-05-14T12:06:37;3.80;;;3.37;;
4268;SDS011;2148;48.554;7.834;2023-05-14T12:09:03;3.37;;;3.17;;
4268;SDS011;2148;48.554;7.834;2023-05-14T12:11:30;3.23;;;3.00;;
4268;SDS011;2148;48.554;7.834;2023-05-14T12:13:57;3.50;;;3.20;;
4268;SDS011;2148;48.554;7.834;2023-05-14T12:16:28;3.00;;;2.80;;
4268;SDS011;2148;48.554;7.834;2023-05-14T12:18:59;2.97;;;2.77;;
4268;SDS011;2148;48.554;7.834;2023-05-14T12:21:26;3.47;;;3.17;;
4268;SDS011;2148;48.554;7.834;2023-05-14T12:23:57;3.30;;;3.00;;
4268;SDS011;2148;48.554;7.834;2023-05-14T12:26:25;3.17;;;2.97;;
4268;SDS011;2148;48.554;7.834;2023-05-14T12:29:00;3.20;;;2.90;;
4268;SDS011;2148;48.554;7.834;2023-05-14T12:31:27;3.00;;;2.70;;
4268;SDS011;2148;48.554;7.834;2023-05-14T12:33:56;3.50;;;3.20;;
4268;SDS011;2148;48.554;7.834;2023-05-14T12:36:22;3.10;;;2.90;;
4268;SDS011;2148;48.554;7.834;2023-05-14T12:38:50;3.20;;;3.00;;
4268;SDS011;2148;48.554;7.834;2023-05-14T12:41:20;3.33;;;2.90;;
4268;SDS011;2148;48.554;7.834;2023-05-14T12:43:46;3.07;;;2.77;;
4268;SDS011;2148;48.554;7.834;2023-05-14T12:46:12;3.23;;;2.97;;
4268;SDS011;2148;48.554;7.834;2023-05-14T12:48:37;3.90;;;3.60;;
4268;SDS011;2148;48.554;7.834;2023-05-14T12:51:02;3.73;;;3.43;;
4268;SDS011;2148;48.554;7.834;2023-05-14T12:53:28;3.50;;;3.20;;
4268;SDS011;2148;48.554;7.834;2023-05-14T12:55:53;3.00;;;2.80;;
4268;SDS011;2148;48.554;7.834;2023-05-14T12:58:18;3.00;;;2.73;;
4268;SDS011;2148;48.554;7.834;2023-05-14T13:00:44;2.83;;;2.50;;
4268;SDS011;2148;48.554;7.834;2023-05-14T13:03:09;3.50;;;3.20;;
4268;SDS011;2148;48.554;7.834;2023-05-14T13:05:35;3.40;;;3.17;;
4268;SDS011;2148;48.554;7.834;2023-05-14T13:08:00;3.50;;;3.20;;
4268;SDS011;2148;48.554;7.834;2023-05-14T13:10:27;3.00;;;2.70;;
4268;SDS011;2148;48.554;7.834;2023-05-14T13:12:53;3.30;;;3.00;;
4268;SDS011;2148;48.554;7.834;2023-05-14T13:15:18;3.03;;;2.83;;
4268;SDS011;2148;48.554;7.834;2023-05-14T13:17:43;3.10;;;2.80;;
4268;SDS011;2148;48.554;7.834;2023-05-14T13:20:09;3.30;;;2.90;;
4268;SDS011;2148;48.554;7.834;2023-05-14T13:22:34;3.20;;;3.00;;
4268;SDS011;2148;48.554;7.834;2023-05-14T13:24:59;3.57;;;3.27;;
4268;SDS011;2148;48.554;7.834;2023-05-14T13:27:25;3.13;;;2.80;;
4268;SDS011;2148;48.554;7.834;2023-05-14T13:29:50;2.93;;;2.73;;
4268;SDS011;2148;48.554;7.834;2023-05-14T13:32:16;3.00;;;2.70;;
4268;SDS011;2148;48.554;7.834;2023-05-14T13:34:41;2.70;;;2.50;;
4268;SDS011;2148;48.554;7.834;2023-05-14T13:37:07;2.80;;;2.60;;
4268;SDS011;2148;48.554;7.834;2023-05-14T13:39:33;3.10;;;2.80;;
4268;SDS011;2148;48.554;7.834;2023-05-14T13:41:58;2.80;;;2.60;;
4268;SDS011;2148;48.554;7.834;2023-05-14T13:44:23;3.47;;;3.10;;
4268;SDS011;2148;48.554;7.834;2023-05-14T13:46:49;4.50;;;2.87;;
4268;SDS011;2148;48.554;7.834;2023-05-14T13:49:14;2.80;;;2.60;;
4268;SDS011;2148;48.554;7.834;2023-05-14T13:51:39;3.00;;;2.80;;
4268;SDS011;2148;48.554;7.834;2023-05-14T13:54:05;3.40;;;3.10;;
4268;SDS011;2148;48.554;7.834;2023-05-14T13:56:30;3.20;;;2.90;;
4268;SDS011;2148;48.554;7.834;2023-05-14T13:58:55;3.07;;;2.83;;
4268;SDS011;2148;48.554;7.834;2023-05-14T14:01:20;8.97;;;4.20;;
4268;SDS011;2148;48.554;7.834;2023-05-14T14:03:47;3.37;;;3.07;;
4268;SDS011;2148;48.554;7.834;2023-05-14T14:06:12;3.87;;;2.93;;
4268;SDS011;2148;48.554;7.834;2023-05-14T14:08:37;3.50;;;3.20;;
4268;SDS011;2148;48.554;7.834;2023-05-14T14:11:03;3.40;;;3.10;;
4268;SDS011;2148;48.554;7.834;2023-05-14T14:13:28;3.20;;;3.00;;
4268;SDS011;2148;48.554;7.834;2023-05-14T14:15:53;3.37;;;3.10;;
4268;SDS011;2148;48.554;7.834;2023-05-14T14:18:19;3.93;;;3.63;;
4268;SDS011;2148;48.554;7.834;2023-05-14T14:20:44;3.30;;;3.00;;
4268;SDS011;2148;48.554;7.834;2023-05-14T14:23:10;3.33;;;3.13;;
4268;SDS011;2148;48.554;7.834;2023-05-14T14:25:35;3.17;;;2.90;;
4268;SDS011;2148;48.554;7.834;2023-05-14T14:28:00;3.37;;;3.07;;
4268;SDS011;2148;48.554;7.834;2023-05-14T14:30:25;3.30;;;3.00;;
4268;SDS011;2148;48.554;7.834;2023-05-14T14:32:50;3.20;;;2.93;;
4268;SDS011;2148;48.554;7.834;2023-05-14T14:35:16;3.00;;;2.80;;
4268;SDS011;2148;48.554;7.834;2023-05-14T14:37:43;3.03;;;2.83;;
4268;SDS011;2148;48.554;7.834;2023-05-14T14:40:12;3.40;;;3.10;;
4268;SDS011;2148;48.554;7.834;2023-05-14T14:42:37;2.93;;;2.73;;
4268;SDS011;2148;48.554;7.834;2023-05-14T14:45:03;3.00;;;2.80;;
4268;SDS011;2148;48.554;7.834;2023-05-14T14:47:29;3.90;;;3.13;;
4268;SDS011;2148;48.554;7.834;2023-05-14T14:49:54;3.70;;;3.37;;
4268;SDS011;2148;48.554;7.834;2023-05-14T14:52:20;3.47;;;3.17;;
4268;SDS011;2148;48.554;7.834;2023-05-14T14:54:46;3.00;;;2.80;;
4268;SDS011;2148;48.554;7.834;2023-05-14T14:57:11;3.73;;;2.90;;
4268;SDS011;2148;48.554;7.834;2023-05-14T14:59:36;3.10;;;2.90;;
4268;SDS011;2148;48.554;7.834;2023-05-14T15:02:01;3.20;;;2.90;;
4268;SDS011;2148;48.554;7.834;2023-05-14T15:04:27;3.73;;;3.37;;
4268;SDS011;2148;48.554;7.834;2023-05-14T15:06:56;3.03;;;2.83;;
4268;SDS011;2148;48.554;7.834;2023-05-14T15:09:21;3.13;;;2.93;;
4268;SDS011;2148;48.554;7.834;2023-05-14T15:11:47;3.30;;;3.00;;
4268;SDS011;2148;48.554;7.834;2023-05-14T15:14:12;3.07;;;2.70;;
4268;SDS011;2148;48.554;7.834;2023-05-14T15:16:37;3.37;;;3.10;;
4268;SDS011;2148;48.554;7.834;2023-05-14T15:19:02;2.87;;;2.67;;
4268;SDS011;2148;48.554;7.834;2023-05-14T15:21:28;3.10;;;2.90;;